sensor_id;sensor_type;location;lat;lon;timestamp;temperature;humidity
61207;DHT22;47070;49.212;8.084;2022-12-29T00:00:41;15.60;99.90
61207;DHT22;47070;49.212;8.084;2022-12-29T00:04:42;16.00;99.90
61207;DHT22;47070;49.212;8.084;2022-12-29T00:08:42;15.70;99.90
61207;DHT22;47070;49.212;8.084;2022-12-29T00:12:43;15.90;99.90
61207;DHT22;47070;49.212;8.084;2022-12-29T00:17:02;15.90;99.90
61207;DHT22;47070;49.212;8.084;2022-12-29T00:21:02;15.60;99.90
61207;DHT22;47070;49.212;8.084;2022-12-29T00:25:22;15.60;99.90
61207;DHT22;47070;49.212;8.084;2022-12-29T00:29:41;15.30;99.90
61207;DHT22;47070;49.212;8.084;2022-12-29T00:34:00;15.50;99.90
61207;DHT22;47070;49.212;8.084;2022-12-29T00:38:19;15.60;99.90
61207;DHT22;47070;49.212;8.084;2022-12-29T00:42:39;15.80;99.90
61207;DHT22;47070;49.212;8.084;2022-12-29T00:46:59;15.90;99.90
61207;DHT22;47070;49.212;8.084;2022-12-29T00:51:03;15.10;99.90
61207;DHT22;47070;49.212;8.084;2022-12-29T00:55:03;15.60;99.90
61207;DHT22;47070;49.212;8.084;2022-12-29T00:59:05;15.40;99.90
61207;DHT22;47070;49.212;8.084;2022-12-29T01:03:06;15.80;99.90
61207;DHT22;47070;49.212;8.084;2022-12-29T01:07:06;15.30;99.90
61207;DHT22;47070;49.212;8.084;2022-12-29T01:11:08;15.60;99.90
61207;DHT22;47070;49.212;8.084;2022-12-29T01:15:09;15.10;99.90
61207;DHT22;47070;49.212;8.084;2022-12-29T01:19:11;15.10;99.90
61207;DHT22;47070;49.212;8.084;2022-12-29T01:23:11;15.50;99.90
61207;DHT22;47070;49.212;8.084;2022-12-29T01:27:11;15.60;99.90
61207;DHT22;47070;49.212;8.084;2022-12-29T01:31:13;15.40;99.90
61207;DHT22;47070;49.212;8.084;2022-12-29T01:35:13;15.20;99.90
61207;DHT22;47070;49.212;8.084;2022-12-29T01:39:14;15.20;99.90
61207;DHT22;47070;49.212;8.084;2022-12-29T01:43:14;15.00;99.90
61207;DHT22;47070;49.212;8.084;2022-12-29T01:47:16;15.20;99.90
61207;DHT22;47070;49.212;8.084;2022-12-29T01:51:19;15.30;99.90
61207;DHT22;47070;49.212;8.084;2022-12-29T01:55:21;15.20;99.90
61207;DHT22;47070;49.212;8.084;2022-12-29T01:59:24;15.30;99.90
61207;DHT22;47070;49.212;8.084;2022-12-29T02:03:26;15.20;99.90
61207;DHT22;47070;49.212;8.084;2022-12-29T02:07:27;15.10;99.90
61207;DHT22;47070;49.212;8.084;2022-12-29T02:11:28;15.10;99.90
61207;DHT22;47070;49.212;8.084;2022-12-29T02:20:11;15.30;99.90
61207;DHT22;47070;49.212;8.084;2022-12-29T02:36:29;15.40;99.90
61207;DHT22;47070;49.212;8.084;2022-12-29T02:44:42;15.20;99.90
61207;DHT22;47070;49.212;8.084;2022-12-29T02:48:52;15.30;99.90
61207;DHT22;47070;49.212;8.084;2022-12-29T02:52:57;15.20;99.90
61207;DHT22;47070;49.212;8.084;2022-12-29T02:56:58;15.30;99.90
61207;DHT22;47070;49.212;8.084;2022-12-29T03:05:05;15.50;99.90
61207;DHT22;47070;49.212;8.084;2022-12-29T03:09:11;15.70;99.90
61207;DHT22;47070;49.212;8.084;2022-12-29T03:13:32;15.40;99.90
61207;DHT22;47070;49.212;8.084;2022-12-29T03:17:57;15.30;99.90
61207;DHT22;47070;49.212;8.084;2022-12-29T03:22:01;15.20;99.90
61207;DHT22;47070;49.212;8.084;2022-12-29T03:26:20;15.50;99.90
61207;DHT22;47070;49.212;8.084;2022-12-29T03:30:21;15.30;99.90
61207;DHT22;47070;49.212;8.084;2022-12-29T03:34:21;14.90;99.90
61207;DHT22;47070;49.212;8.084;2022-12-29T03:38:28;15.30;99.90
61207;DHT22;47070;49.212;8.084;2022-12-29T03:42:30;15.10;99.90
61207;DHT22;47070;49.212;8.084;2022-12-29T03:46:32;15.60;99.90
61207;DHT22;47070;49.212;8.084;2022-12-29T03:50:32;15.50;99.90
61207;DHT22;47070;49.212;8.084;2022-12-29T03:54:33;15.40;99.90
61207;DHT22;47070;49.212;8.084;2022-12-29T03:58:34;15.30;99.90
61207;DHT22;47070;49.212;8.084;2022-12-29T04:02:34;15.20;99.90
61207;DHT22;47070;49.212;8.084;2022-12-29T04:06:35;15.50;99.90
61207;DHT22;47070;49.212;8.084;2022-12-29T04:10:35;15.30;99.90
61207;DHT22;47070;49.212;8.084;2022-12-29T04:14:35;15.10;99.90
61207;DHT22;47070;49.212;8.084;2022-12-29T04:18:36;15.40;99.90
61207;DHT22;47070;49.212;8.084;2022-12-29T04:22:36;15.20;99.90
61207;DHT22;47070;49.212;8.084;2022-12-29T04:26:37;15.30;99.90
61207;DHT22;47070;49.212;8.084;2022-12-29T04:30:37;15.30;99.90
61207;DHT22;47070;49.212;8.084;2022-12-29T04:34:38;15.50;99.90
61207;DHT22;47070;49.212;8.084;2022-12-29T04:38:38;15.70;99.90
61207;DHT22;47070;49.212;8.084;2022-12-29T04:42:38;15.50;99.90
61207;DHT22;47070;49.212;8.084;2022-12-29T04:46:39;15.60;99.90
61207;DHT22;47070;49.212;8.084;2022-12-29T04:50:40;15.30;99.90
61207;DHT22;47070;49.212;8.084;2022-12-29T04:54:40;15.20;99.90
61207;DHT22;47070;49.212;8.084;2022-12-29T04:58:41;15.10;99.90
61207;DHT22;47070;49.212;8.084;2022-12-29T05:02:41;15.20;99.90
61207;DHT22;47070;49.212;8.084;2022-12-29T05:06:41;15.50;99.90
61207;DHT22;47070;49.212;8.084;2022-12-29T05:10:44;14.80;99.90
61207;DHT22;47070;49.212;8.084;2022-12-29T05:14:44;15.20;99.90
61207;DHT22;47070;49.212;8.084;2022-12-29T05:18:45;14.90;99.90
61207;DHT22;47070;49.212;8.084;2022-12-29T05:22:45;14.80;99.90
61207;DHT22;47070;49.212;8.084;2022-12-29T05:26:45;15.00;99.90
61207;DHT22;47070;49.212;8.084;2022-12-29T05:30:49;14.90;99.90
61207;DHT22;47070;49.212;8.084;2022-12-29T05:34:50;15.30;99.90
61207;DHT22;47070;49.212;8.084;2022-12-29T05:38:50;15.30;99.90
61207;DHT22;47070;49.212;8.084;2022-12-29T05:42:51;15.60;99.90
61207;DHT22;47070;49.212;8.084;2022-12-29T05:46:51;15.70;99.90
61207;DHT22;47070;49.212;8.084;2022-12-29T05:50:52;15.50;99.90
61207;DHT22;47070;49.212;8.084;2022-12-29T05:54:52;15.20;99.90
61207;DHT22;47070;49.212;8.084;2022-12-29T05:58:52;15.70;99.90
61207;DHT22;47070;49.212;8.084;2022-12-29T06:02:53;15.80;99.90
61207;DHT22;47070;49.212;8.084;2022-12-29T06:06:53;15.60;99.90
61207;DHT22;47070;49.212;8.084;2022-12-29T06:10:54;15.90;99.90
61207;DHT22;47070;49.212;8.084;2022-12-29T06:14:54;15.70;99.90
61207;DHT22;47070;49.212;8.084;2022-12-29T06:18:55;15.70;99.90
61207;DHT22;47070;49.212;8.084;2022-12-29T06:22:55;15.60;99.90
61207;DHT22;47070;49.212;8.084;2022-12-29T06:26:55;15.80;99.90
61207;DHT22;47070;49.212;8.084;2022-12-29T06:30:56;15.80;99.90
61207;DHT22;47070;49.212;8.084;2022-12-29T06:34:57;16.00;99.90
61207;DHT22;47070;49.212;8.084;2022-12-29T06:38:58;15.80;99.90
61207;DHT22;47070;49.212;8.084;2022-12-29T06:42:58;16.20;99.90
61207;DHT22;47070;49.212;8.084;2022-12-29T06:46:59;16.00;99.90
61207;DHT22;47070;49.212;8.084;2022-12-29T06:50:59;15.70;99.90
61207;DHT22;47070;49.212;8.084;2022-12-29T06:54:59;15.70;99.90
61207;DHT22;47070;49.212;8.084;2022-12-29T06:59:00;15.70;99.90
61207;DHT22;47070;49.212;8.084;2022-12-29T07:03:01;15.20;99.90
61207;DHT22;47070;49.212;8.084;2022-12-29T07:07:01;15.70;99.90
61207;DHT22;47070;49.212;8.084;2022-12-29T07:11:02;15.60;99.90
61207;DHT22;47070;49.212;8.084;2022-12-29T07:15:03;15.80;99.90
61207;DHT22;47070;49.212;8.084;2022-12-29T07:19:03;15.90;99.90
61207;DHT22;47070;49.212;8.084;2022-12-29T07:23:04;15.80;99.90
61207;DHT22;47070;49.212;8.084;2022-12-29T07:27:04;15.60;99.90
61207;DHT22;47070;49.212;8.084;2022-12-29T07:31:05;15.50;99.90
61207;DHT22;47070;49.212;8.084;2022-12-29T07:35:06;15.60;99.90
61207;DHT22;47070;49.212;8.084;2022-12-29T07:39:07;15.90;99.90
61207;DHT22;47070;49.212;8.084;2022-12-29T07:43:07;15.70;99.90
61207;DHT22;47070;49.212;8.084;2022-12-29T07:47:08;16.00;99.90
61207;DHT22;47070;49.212;8.084;2022-12-29T07:51:08;15.90;99.90
61207;DHT22;47070;49.212;8.084;2022-12-29T07:55:08;16.00;99.90
61207;DHT22;47070;49.212;8.084;2022-12-29T07:59:09;15.80;99.90
61207;DHT22;47070;49.212;8.084;2022-12-29T08:03:09;15.90;99.90
61207;DHT22;47070;49.212;8.084;2022-12-29T08:07:10;15.80;99.90
61207;DHT22;47070;49.212;8.084;2022-12-29T08:11:11;16.20;99.90
61207;DHT22;47070;49.212;8.084;2022-12-29T08:15:11;16.20;99.90
61207;DHT22;47070;49.212;8.084;2022-12-29T08:19:12;16.30;99.90
61207;DHT22;47070;49.212;8.084;2022-12-29T08:23:12;15.90;99.90
61207;DHT22;47070;49.212;8.084;2022-12-29T08:27:13;16.00;99.90
61207;DHT22;47070;49.212;8.084;2022-12-29T08:31:13;16.60;99.90
61207;DHT22;47070;49.212;8.084;2022-12-29T08:35:14;16.50;99.90
61207;DHT22;47070;49.212;8.084;2022-12-29T08:39:14;16.40;99.90
61207;DHT22;47070;49.212;8.084;2022-12-29T08:43:15;16.30;99.90
61207;DHT22;47070;49.212;8.084;2022-12-29T08:47:16;16.50;99.90
61207;DHT22;47070;49.212;8.084;2022-12-29T08:51:16;16.30;99.90
61207;DHT22;47070;49.212;8.084;2022-12-29T08:55:17;16.30;99.90
61207;DHT22;47070;49.212;8.084;2022-12-29T08:59:17;16.50;99.90
61207;DHT22;47070;49.212;8.084;2022-12-29T09:03:18;16.50;99.90
61207;DHT22;47070;49.212;8.084;2022-12-29T09:07:18;16.10;99.90
61207;DHT22;47070;49.212;8.084;2022-12-29T09:11:20;16.20;99.90
61207;DHT22;47070;49.212;8.084;2022-12-29T09:15:20;16.20;99.90
61207;DHT22;47070;49.212;8.084;2022-12-29T09:19:21;15.90;99.90
61207;DHT22;47070;49.212;8.084;2022-12-29T09:23:21;16.30;99.90
61207;DHT22;47070;49.212;8.084;2022-12-29T09:27:22;16.30;99.90
61207;DHT22;47070;49.212;8.084;2022-12-29T09:31:22;16.10;99.90
61207;DHT22;47070;49.212;8.084;2022-12-29T09:35:22;16.00;99.90
61207;DHT22;47070;49.212;8.084;2022-12-29T09:39:23;15.70;99.90
61207;DHT22;47070;49.212;8.084;2022-12-29T09:43:27;15.90;99.90
61207;DHT22;47070;49.212;8.084;2022-12-29T09:47:29;16.10;99.90
61207;DHT22;47070;49.212;8.084;2022-12-29T09:51:30;16.10;99.90
61207;DHT22;47070;49.212;8.084;2022-12-29T09:55:35;16.10;99.90
61207;DHT22;47070;49.212;8.084;2022-12-29T09:59:40;16.10;99.90
61207;DHT22;47070;49.212;8.084;2022-12-29T10:03:46;16.20;99.90
61207;DHT22;47070;49.212;8.084;2022-12-29T10:16:14;15.40;99.90
61207;DHT22;47070;49.212;8.084;2022-12-29T10:24:24;16.20;99.90
61207;DHT22;47070;49.212;8.084;2022-12-29T10:28:37;16.50;99.90
61207;DHT22;47070;49.212;8.084;2022-12-29T10:32:45;16.30;99.90
61207;DHT22;47070;49.212;8.084;2022-12-29T10:36:48;16.00;99.90
61207;DHT22;47070;49.212;8.084;2022-12-29T10:40:54;16.00;99.90
61207;DHT22;47070;49.212;8.084;2022-12-29T10:44:58;16.00;99.90
61207;DHT22;47070;49.212;8.084;2022-12-29T10:48:59;16.00;99.90
61207;DHT22;47070;49.212;8.084;2022-12-29T10:53:00;16.30;99.90
61207;DHT22;47070;49.212;8.084;2022-12-29T10:57:07;16.00;99.90
61207;DHT22;47070;49.212;8.084;2022-12-29T11:01:09;16.30;99.90
61207;DHT22;47070;49.212;8.084;2022-12-29T11:09:16;16.40;99.90
61207;DHT22;47070;49.212;8.084;2022-12-29T11:13:24;16.20;99.90
61207;DHT22;47070;49.212;8.084;2022-12-29T11:17:25;16.40;99.90
61207;DHT22;47070;49.212;8.084;2022-12-29T11:21:27;16.40;99.90
61207;DHT22;47070;49.212;8.084;2022-12-29T11:25:27;16.40;99.90
61207;DHT22;47070;49.212;8.084;2022-12-29T11:29:29;16.40;99.90
61207;DHT22;47070;49.212;8.084;2022-12-29T11:33:38;16.40;99.90
61207;DHT22;47070;49.212;8.084;2022-12-29T11:37:39;16.50;99.90
61207;DHT22;47070;49.212;8.084;2022-12-29T11:41:39;16.90;99.90
61207;DHT22;47070;49.212;8.084;2022-12-29T11:45:40;17.20;99.90
61207;DHT22;47070;49.212;8.084;2022-12-29T11:49:49;17.20;99.90
61207;DHT22;47070;49.212;8.084;2022-12-29T11:53:50;17.20;99.90
61207;DHT22;47070;49.212;8.084;2022-12-29T11:57:52;17.20;99.90
61207;DHT22;47070;49.212;8.084;2022-12-29T12:01:54;16.60;99.90
61207;DHT22;47070;49.212;8.084;2022-12-29T12:05:56;16.50;99.90
61207;DHT22;47070;49.212;8.084;2022-12-29T12:09:58;16.70;99.90
61207;DHT22;47070;49.212;8.084;2022-12-29T12:18:28;17.00;99.90
61207;DHT22;47070;49.212;8.084;2022-12-29T12:22:31;16.70;99.90
61207;DHT22;47070;49.212;8.084;2022-12-29T12:30:38;15.30;99.90
61207;DHT22;47070;49.212;8.084;2022-12-29T12:34:41;15.70;99.90
61207;DHT22;47070;49.212;8.084;2022-12-29T12:38:50;15.50;99.90
61207;DHT22;47070;49.212;8.084;2022-12-29T13:04:01;15.30;99.90
61207;DHT22;47070;49.212;8.084;2022-12-29T13:12:32;15.50;99.90
61207;DHT22;47070;49.212;8.084;2022-12-29T13:29:29;15.60;99.90
61207;DHT22;47070;49.212;8.084;2022-12-29T13:33:48;15.40;99.90
61207;DHT22;47070;49.212;8.084;2022-12-29T13:42:08;14.90;99.90
61207;DHT22;47070;49.212;8.084;2022-12-29T13:46:13;14.60;99.90
61207;DHT22;47070;49.212;8.084;2022-12-29T13:50:18;14.20;99.90
61207;DHT22;47070;49.212;8.084;2022-12-29T13:59:42;13.40;99.90
61207;DHT22;47070;49.212;8.084;2022-12-29T14:03:16;13.40;99.90
61207;DHT22;47070;49.212;8.084;2022-12-29T14:07:20;13.10;99.90
61207;DHT22;47070;49.212;8.084;2022-12-29T14:11:21;13.40;99.90
61207;DHT22;47070;49.212;8.084;2022-12-29T14:15:22;13.90;99.90
61207;DHT22;47070;49.212;8.084;2022-12-29T14:19:28;14.30;99.90
61207;DHT22;47070;49.212;8.084;2022-12-29T14:23:40;14.70;99.90
61207;DHT22;47070;49.212;8.084;2022-12-29T14:27:42;15.00;99.90
61207;DHT22;47070;49.212;8.084;2022-12-29T14:31:43;15.10;99.90
61207;DHT22;47070;49.212;8.084;2022-12-29T14:35:44;15.10;99.90
61207;DHT22;47070;49.212;8.084;2022-12-29T14:39:49;15.40;99.90
61207;DHT22;47070;49.212;8.084;2022-12-29T14:44:11;15.40;99.90
61207;DHT22;47070;49.212;8.084;2022-12-29T14:48:21;14.90;99.90
61207;DHT22;47070;49.212;8.084;2022-12-29T14:52:28;15.20;99.90
61207;DHT22;47070;49.212;8.084;2022-12-29T14:56:29;14.50;99.90
61207;DHT22;47070;49.212;8.084;2022-12-29T15:00:33;14.70;99.90
61207;DHT22;47070;49.212;8.084;2022-12-29T15:04:34;14.30;99.90
61207;DHT22;47070;49.212;8.084;2022-12-29T15:08:39;14.30;99.90
61207;DHT22;47070;49.212;8.084;2022-12-29T15:12:45;14.80;99.90
61207;DHT22;47070;49.212;8.084;2022-12-29T15:16:47;14.60;99.90
61207;DHT22;47070;49.212;8.084;2022-12-29T15:20:49;14.70;99.90
61207;DHT22;47070;49.212;8.084;2022-12-29T15:24:54;14.20;99.90
61207;DHT22;47070;49.212;8.084;2022-12-29T15:28:55;14.00;99.90
61207;DHT22;47070;49.212;8.084;2022-12-29T15:32:55;14.00;99.90
61207;DHT22;47070;49.212;8.084;2022-12-29T15:36:56;14.30;99.90
61207;DHT22;47070;49.212;8.084;2022-12-29T15:41:02;13.30;99.90
61207;DHT22;47070;49.212;8.084;2022-12-29T15:45:09;13.30;99.90
61207;DHT22;47070;49.212;8.084;2022-12-29T15:49:11;13.00;99.90
61207;DHT22;47070;49.212;8.084;2022-12-29T15:53:24;13.40;99.90
61207;DHT22;47070;49.212;8.084;2022-12-29T15:57:30;14.00;99.90
61207;DHT22;47070;49.212;8.084;2022-12-29T16:01:33;14.20;99.90
61207;DHT22;47070;49.212;8.084;2022-12-29T16:05:34;14.40;99.90
61207;DHT22;47070;49.212;8.084;2022-12-29T16:09:36;14.40;99.90
61207;DHT22;47070;49.212;8.084;2022-12-29T16:13:41;14.40;99.90
61207;DHT22;47070;49.212;8.084;2022-12-29T16:17:51;14.40;99.90
61207;DHT22;47070;49.212;8.084;2022-12-29T16:21:52;14.90;99.90
61207;DHT22;47070;49.212;8.084;2022-12-29T16:25:53;14.90;99.90
61207;DHT22;47070;49.212;8.084;2022-12-29T16:29:55;15.10;99.90
61207;DHT22;47070;49.212;8.084;2022-12-29T16:33:55;14.40;99.90
61207;DHT22;47070;49.212;8.084;2022-12-29T16:46:35;13.70;99.90
61207;DHT22;47070;49.212;8.084;2022-12-29T16:50:38;13.40;99.90
61207;DHT22;47070;49.212;8.084;2022-12-29T16:54:39;12.70;99.90
61207;DHT22;47070;49.212;8.084;2022-12-29T16:58:40;12.30;99.90
61207;DHT22;47070;49.212;8.084;2022-12-29T17:02:45;12.20;99.90
61207;DHT22;47070;49.212;8.084;2022-12-29T17:06:46;12.60;99.90
61207;DHT22;47070;49.212;8.084;2022-12-29T17:10:47;13.20;99.90
61207;DHT22;47070;49.212;8.084;2022-12-29T17:15:09;13.00;99.90
61207;DHT22;47070;49.212;8.084;2022-12-29T17:19:15;12.70;99.90
61207;DHT22;47070;49.212;8.084;2022-12-29T17:23:16;12.40;99.90
61207;DHT22;47070;49.212;8.084;2022-12-29T17:27:27;12.60;99.90
61207;DHT22;47070;49.212;8.084;2022-12-29T17:31:28;13.00;99.90
61207;DHT22;47070;49.212;8.084;2022-12-29T17:35:29;12.80;99.90
61207;DHT22;47070;49.212;8.084;2022-12-29T17:39:29;13.40;99.90
61207;DHT22;47070;49.212;8.084;2022-12-29T17:43:30;13.80;99.90
61207;DHT22;47070;49.212;8.084;2022-12-29T17:47:30;13.70;99.90
61207;DHT22;47070;49.212;8.084;2022-12-29T17:51:30;13.40;99.90
61207;DHT22;47070;49.212;8.084;2022-12-29T17:55:31;13.70;99.90
61207;DHT22;47070;49.212;8.084;2022-12-29T17:59:32;13.40;99.90
61207;DHT22;47070;49.212;8.084;2022-12-29T18:03:33;13.80;99.90
61207;DHT22;47070;49.212;8.084;2022-12-29T18:07:35;13.50;99.90
61207;DHT22;47070;49.212;8.084;2022-12-29T18:11:37;14.00;99.90
61207;DHT22;47070;49.212;8.084;2022-12-29T18:15:37;13.80;99.90
61207;DHT22;47070;49.212;8.084;2022-12-29T18:19:38;13.40;99.90
61207;DHT22;47070;49.212;8.084;2022-12-29T18:23:38;13.50;99.90
61207;DHT22;47070;49.212;8.084;2022-12-29T18:27:39;13.40;99.90
61207;DHT22;47070;49.212;8.084;2022-12-29T18:31:39;13.50;99.90
61207;DHT22;47070;49.212;8.084;2022-12-29T18:35:44;13.60;99.90
61207;DHT22;47070;49.212;8.084;2022-12-29T18:39:45;13.50;99.90
61207;DHT22;47070;49.212;8.084;2022-12-29T18:43:46;13.80;99.90
61207;DHT22;47070;49.212;8.084;2022-12-29T18:47:46;14.10;99.90
61207;DHT22;47070;49.212;8.084;2022-12-29T18:51:47;14.00;99.90
61207;DHT22;47070;49.212;8.084;2022-12-29T18:55:47;14.10;99.90
61207;DHT22;47070;49.212;8.084;2022-12-29T18:59:48;14.40;99.90
61207;DHT22;47070;49.212;8.084;2022-12-29T19:03:48;14.50;99.90
61207;DHT22;47070;49.212;8.084;2022-12-29T19:07:49;14.00;99.90
61207;DHT22;47070;49.212;8.084;2022-12-29T19:11:50;13.00;99.90
61207;DHT22;47070;49.212;8.084;2022-12-29T19:15:50;12.40;99.90
61207;DHT22;47070;49.212;8.084;2022-12-29T19:19:51;12.20;99.90
61207;DHT22;47070;49.212;8.084;2022-12-29T19:23:53;12.20;99.90
61207;DHT22;47070;49.212;8.084;2022-12-29T19:27:53;12.70;99.90
61207;DHT22;47070;49.212;8.084;2022-12-29T19:31:54;12.90;99.90
61207;DHT22;47070;49.212;8.084;2022-12-29T19:35:58;12.70;99.90
61207;DHT22;47070;49.212;8.084;2022-12-29T19:39:59;12.80;99.90
61207;DHT22;47070;49.212;8.084;2022-12-29T19:43:59;12.60;99.90
61207;DHT22;47070;49.212;8.084;2022-12-29T19:48:00;12.20;99.90
61207;DHT22;47070;49.212;8.084;2022-12-29T19:52:00;12.50;99.90
61207;DHT22;47070;49.212;8.084;2022-12-29T19:56:02;12.10;99.90
61207;DHT22;47070;49.212;8.084;2022-12-29T20:00:02;12.20;99.90
61207;DHT22;47070;49.212;8.084;2022-12-29T20:04:03;11.80;99.90
61207;DHT22;47070;49.212;8.084;2022-12-29T20:08:03;11.80;99.90
61207;DHT22;47070;49.212;8.084;2022-12-29T20:12:04;11.40;99.90
61207;DHT22;47070;49.212;8.084;2022-12-29T20:16:05;11.20;99.90
61207;DHT22;47070;49.212;8.084;2022-12-29T20:20:06;11.20;99.90
61207;DHT22;47070;49.212;8.084;2022-12-29T20:24:07;11.90;99.90
61207;DHT22;47070;49.212;8.084;2022-12-29T20:28:07;14.00;99.90
61207;DHT22;47070;49.212;8.084;2022-12-29T20:32:10;13.80;99.90
61207;DHT22;47070;49.212;8.084;2022-12-29T20:36:12;13.80;99.90
61207;DHT22;47070;49.212;8.084;2022-12-29T20:40:14;14.00;99.90
61207;DHT22;47070;49.212;8.084;2022-12-29T20:44:15;13.90;99.90
61207;DHT22;47070;49.212;8.084;2022-12-29T20:48:15;13.90;99.90
61207;DHT22;47070;49.212;8.084;2022-12-29T20:52:16;14.20;99.90
61207;DHT22;47070;49.212;8.084;2022-12-29T20:56:17;13.70;99.90
61207;DHT22;47070;49.212;8.084;2022-12-29T21:00:18;14.10;99.90
61207;DHT22;47070;49.212;8.084;2022-12-29T21:04:18;12.90;99.90
61207;DHT22;47070;49.212;8.084;2022-12-29T21:08:19;12.90;99.90
61207;DHT22;47070;49.212;8.084;2022-12-29T21:12:20;12.40;99.90
61207;DHT22;47070;49.212;8.084;2022-12-29T21:16:20;12.40;99.90
61207;DHT22;47070;49.212;8.084;2022-12-29T21:20:21;13.30;99.90
61207;DHT22;47070;49.212;8.084;2022-12-29T21:24:29;13.90;99.90
61207;DHT22;47070;49.212;8.084;2022-12-29T21:28:29;13.00;99.90
61207;DHT22;47070;49.212;8.084;2022-12-29T21:32:30;13.60;99.90
61207;DHT22;47070;49.212;8.084;2022-12-29T21:36:30;14.10;99.90
61207;DHT22;47070;49.212;8.084;2022-12-29T21:40:35;13.50;99.90
61207;DHT22;47070;49.212;8.084;2022-12-29T21:44:36;14.00;99.90
61207;DHT22;47070;49.212;8.084;2022-12-29T21:48:54;14.90;99.90
61207;DHT22;47070;49.212;8.084;2022-12-29T21:52:55;14.70;99.90
61207;DHT22;47070;49.212;8.084;2022-12-29T21:56:55;14.40;99.90
61207;DHT22;47070;49.212;8.084;2022-12-29T22:00:56;14.00;99.90
61207;DHT22;47070;49.212;8.084;2022-12-29T22:05:16;14.30;99.90
61207;DHT22;47070;49.212;8.084;2022-12-29T22:09:35;13.50;99.90
61207;DHT22;47070;49.212;8.084;2022-12-29T22:13:54;13.30;99.90
61207;DHT22;47070;49.212;8.084;2022-12-29T22:17:57;13.60;99.90
61207;DHT22;47070;49.212;8.084;2022-12-29T22:21:57;13.10;99.90
61207;DHT22;47070;49.212;8.084;2022-12-29T22:26:02;13.20;99.90
61207;DHT22;47070;49.212;8.084;2022-12-29T22:30:03;12.90;99.90
61207;DHT22;47070;49.212;8.084;2022-12-29T22:34:03;13.10;99.90
61207;DHT22;47070;49.212;8.084;2022-12-29T22:38:04;13.40;99.90
61207;DHT22;47070;49.212;8.084;2022-12-29T22:42:04;13.50;99.90
61207;DHT22;47070;49.212;8.084;2022-12-29T22:46:05;14.10;99.90
61207;DHT22;47070;49.212;8.084;2022-12-29T22:50:07;14.10;99.90
61207;DHT22;47070;49.212;8.084;2022-12-29T22:54:07;13.90;99.90
61207;DHT22;47070;49.212;8.084;2022-12-29T22:58:08;14.40;99.90
61207;DHT22;47070;49.212;8.084;2022-12-29T23:02:08;14.70;99.90
61207;DHT22;47070;49.212;8.084;2022-12-29T23:06:12;14.50;99.90
61207;DHT22;47070;49.212;8.084;2022-12-29T23:10:13;14.30;99.90
61207;DHT22;47070;49.212;8.084;2022-12-29T23:14:13;14.10;99.90
61207;DHT22;47070;49.212;8.084;2022-12-29T23:18:16;14.20;99.90
61207;DHT22;47070;49.212;8.084;2022-12-29T23:22:16;14.00;99.90
61207;DHT22;47070;49.212;8.084;2022-12-29T23:26:17;14.40;99.90
61207;DHT22;47070;49.212;8.084;2022-12-29T23:30:18;14.60;99.90
61207;DHT22;47070;49.212;8.084;2022-12-29T23:34:19;14.40;99.90
61207;DHT22;47070;49.212;8.084;2022-12-29T23:38:19;14.00;99.90
61207;DHT22;47070;49.212;8.084;2022-12-29T23:42:19;14.10;99.90
61207;DHT22;47070;49.212;8.084;2022-12-29T23:46:21;13.80;99.90
61207;DHT22;47070;49.212;8.084;2022-12-29T23:50:22;13.80;99.90
61207;DHT22;47070;49.212;8.084;2022-12-29T23:54:23;13.80;99.90
61207;DHT22;47070;49.212;8.084;2022-12-29T23:58:24;14.20;99.90
